Time;durP1;ratioP1;P1;durP2;ratioP2;P2;SDS_P1;SDS_P2;PMS_P1;PMS_P2;Temp;Humidity;BMP_temperature;BMP_pressure;BME280_temperature;BME280_humidity;BME280_pressure;Samples;Min_cycle;Max_cycle;Signal;HPM_P1;HPM_P2
2021/09/14 00:02:07;;;;;;;7.20;6.50;;;14.80;99.90;;;;;;5074189;28;20200;-58
2021/09/14 00:04:35;;;;;;;7.20;6.25;;;14.80;99.90;;;;;;5073759;28;20203;-57
2021/09/14 00:07:03;;;;;;;7.05;6.25;;;14.80;99.90;;;;;;5073634;28;20232;-56
2021/09/14 00:09:31;;;;;;;6.72;6.13;;;14.70;99.90;;;;;;5073647;28;20566;-59
2021/09/14 00:12:00;;;;;;;7.85;6.45;;;14.70;99.90;;;;;;5073775;28;20893;-57
2021/09/14 00:14:28;;;;;;;8.65;6.63;;;14.70;99.90;;;;;;5073900;28;20270;-57
2021/09/14 00:16:56;;;;;;;7.32;6.63;;;14.60;99.90;;;;;;5073868;28;20246;-57
2021/09/14 00:19:25;;;;;;;9.35;6.85;;;14.60;99.90;;;;;;5074205;28;20197;-59
2021/09/14 00:21:52;;;;;;;7.63;6.55;;;14.60;99.90;;;;;;5073665;28;20207;-58
2021/09/14 00:24:20;;;;;;;7.38;6.63;;;14.60;99.90;;;;;;5073719;28;20292;-57
2021/09/14 00:26:48;;;;;;;8.02;7.18;;;14.60;99.90;;;;;;5073528;28;20296;-56
2021/09/14 00:29:16;;;;;;;9.70;6.47;;;14.50;99.90;;;;;;5073307;28;20201;-57
2021/09/14 00:31:44;;;;;;;8.95;6.90;;;14.50;99.90;;;;;;5073478;28;20200;-58
2021/09/14 00:34:11;;;;;;;7.68;6.35;;;14.50;99.90;;;;;;5073551;28;20255;-55
2021/09/14 00:36:41;;;;;;;8.83;6.60;;;14.50;99.90;;;;;;5073155;28;20213;-57
2021/09/14 00:39:08;;;;;;;8.20;7.03;;;14.40;99.90;;;;;;5072997;28;20236;-56
2021/09/14 00:41:36;;;;;;;8.40;7.35;;;14.40;99.90;;;;;;5072895;28;20201;-57
2021/09/14 00:44:05;;;;;;;9.25;7.53;;;14.40;99.90;;;;;;5073323;28;20239;-57
2021/09/14 00:46:32;;;;;;;8.00;7.03;;;14.40;99.90;;;;;;5073329;28;20232;-57
2021/09/14 00:49:00;;;;;;;8.25;7.13;;;14.40;99.90;;;;;;5072929;28;20697;-56
2021/09/14 00:51:28;;;;;;;7.78;6.95;;;14.30;99.90;;;;;;5073300;28;20292;-57
2021/09/14 00:53:57;;;;;;;7.97;7.18;;;14.30;99.90;;;;;;5072660;28;20667;-57
2021/09/14 00:56:25;;;;;;;8.02;7.22;;;14.30;99.90;;;;;;5072954;28;20287;-56
2021/09/14 00:58:53;;;;;;;8.85;7.28;;;14.30;99.90;;;;;;5072731;28;20223;-57
2021/09/14 01:01:21;;;;;;;8.02;7.10;;;14.30;99.90;;;;;;5073092;28;20207;-57
2021/09/14 01:03:49;;;;;;;8.27;7.37;;;14.30;99.90;;;;;;5073139;28;20205;-56
2021/09/14 01:06:17;;;;;;;7.93;7.15;;;14.30;99.90;;;;;;5072778;28;20228;-58
2021/09/14 01:08:46;;;;;;;8.20;7.50;;;14.20;99.90;;;;;;5072774;28;20247;-57
2021/09/14 01:11:16;;;;;;;8.35;7.53;;;14.20;99.90;;;;;;5072974;28;20284;-55
2021/09/14 01:13:44;;;;;;;9.55;6.85;;;14.20;99.90;;;;;;5072934;28;20201;-56
2021/09/14 01:16:12;;;;;;;8.07;7.13;;;14.10;99.90;;;;;;5072863;28;20252;-56
2021/09/14 01:18:40;;;;;;;7.90;7.20;;;14.20;99.90;;;;;;5072597;28;20201;-57
2021/09/14 01:21:09;;;;;;;9.23;8.05;;;14.20;99.90;;;;;;5072593;28;20204;-56
2021/09/14 01:23:38;;;;;;;9.53;7.50;;;14.20;99.90;;;;;;5072661;28;20227;-58
2021/09/14 01:26:05;;;;;;;9.00;7.43;;;14.20;99.90;;;;;;5073154;28;20288;-58
2021/09/14 01:28:33;;;;;;;8.27;7.05;;;14.10;99.90;;;;;;5072404;28;20782;-58
2021/09/14 01:31:01;;;;;;;8.65;7.65;;;14.10;99.90;;;;;;5072480;28;20201;-57
2021/09/14 01:33:29;;;;;;;8.68;7.72;;;14.10;99.90;;;;;;5072334;28;20660;-57
2021/09/14 01:35:57;;;;;;;8.90;8.00;;;14.10;99.90;;;;;;5072601;28;20217;-59
2021/09/14 01:38:25;;;;;;;8.50;7.55;;;14.10;99.90;;;;;;5072537;28;20196;-57
2021/09/14 01:40:54;;;;;;;8.02;7.30;;;14.10;99.90;;;;;;5072717;28;20608;-56
2021/09/14 01:43:22;;;;;;;7.88;7.13;;;14.10;99.90;;;;;;5074233;28;20204;-58
2021/09/14 01:45:50;;;;;;;8.45;7.57;;;14.20;99.90;;;;;;5076512;28;20211;-55
2021/09/14 01:48:18;;;;;;;7.85;7.15;;;14.20;99.90;;;;;;5076625;28;20196;-58
2021/09/14 01:50:46;;;;;;;8.93;7.60;;;14.30;99.90;;;;;;5076612;28;20196;-59
2021/09/14 01:53:14;;;;;;;9.13;8.23;;;14.20;99.90;;;;;;5076369;28;20209;-58
2021/09/14 01:55:42;;;;;;;7.82;7.03;;;14.20;99.90;;;;;;5076173;28;20216;-58
2021/09/14 01:58:11;;;;;;;8.82;7.30;;;14.20;99.90;;;;;;5075989;28;20237;-56
2021/09/14 02:00:45;;;;;;;8.83;7.87;;;14.20;99.90;;;;;;5076351;28;20236;-56
2021/09/14 02:03:22;;;;;;;7.88;7.15;;;14.20;99.90;;;;;;5076458;28;20220;-57
2021/09/14 02:33:55;;;;;;;7.60;6.80;;;14.00;99.90;;;;;;5075677;28;20712;-57
2021/09/14 02:45:05;;;;;;;8.17;7.37;;;13.80;99.90;;;;;;5075645;28;20177;-56
2021/09/14 02:58:45;;;;;;;7.88;7.07;;;13.90;99.90;;;;;;5038814;28;20295;-58
2021/09/14 03:01:14;;;;;;;7.65;6.95;;;14.00;99.90;;;;;;5075388;28;20570;-57
2021/09/14 03:03:45;;;;;;;9.37;6.80;;;14.00;99.90;;;;;;5075329;28;20196;-56
2021/09/14 03:06:14;;;;;;;8.63;7.22;;;14.00;99.90;;;;;;5075042;28;20224;-54
2021/09/14 03:08:43;;;;;;;7.30;6.55;;;14.00;99.90;;;;;;5075139;28;20288;-58
2021/09/14 03:11:13;;;;;;;7.65;6.88;;;14.00;99.90;;;;;;5075118;28;20227;-57
2021/09/14 03:13:42;;;;;;;7.70;6.50;;;14.00;99.90;;;;;;5075026;28;20185;-56
2021/09/14 03:16:15;;;;;;;7.93;7.03;;;14.00;99.90;;;;;;5074742;28;20224;-56
2021/09/14 03:18:44;;;;;;;7.68;6.68;;;14.00;99.90;;;;;;5075004;28;20207;-56
2021/09/14 03:21:13;;;;;;;7.30;6.57;;;14.00;99.90;;;;;;5075029;28;20200;-57
2021/09/14 03:23:42;;;;;;;7.90;7.00;;;14.00;99.90;;;;;;5074444;28;20295;-57
2021/09/14 03:26:10;;;;;;;7.93;7.13;;;13.90;99.90;;;;;;5074931;28;20197;-57
2021/09/14 03:28:38;;;;;;;7.72;7.03;;;13.90;99.90;;;;;;5074347;28;20201;-56
2021/09/14 03:31:06;;;;;;;8.20;7.33;;;13.80;99.90;;;;;;5074641;28;20228;-56
2021/09/14 03:33:34;;;;;;;7.18;6.47;;;13.70;99.90;;;;;;5074592;28;20218;-57
2021/09/14 03:36:03;;;;;;;7.93;7.13;;;13.70;99.90;;;;;;5074750;28;20217;-57
2021/09/14 03:38:31;;;;;;;8.65;7.20;;;13.70;99.90;;;;;;5074345;28;20589;-56
2021/09/14 03:40:59;;;;;;;7.90;7.13;;;13.70;99.90;;;;;;5074469;28;20200;-58
2021/09/14 03:43:27;;;;;;;7.97;7.17;;;13.70;99.90;;;;;;5074434;28;20223;-57
2021/09/14 03:45:54;;;;;;;7.50;6.80;;;13.70;99.90;;;;;;5074484;28;20197;-57
2021/09/14 03:48:23;;;;;;;7.97;7.18;;;13.80;99.90;;;;;;5074280;28;20207;-55
2021/09/14 03:50:51;;;;;;;7.90;7.10;;;13.80;99.90;;;;;;5074026;28;20627;-56
2021/09/14 03:53:20;;;;;;;8.20;7.27;;;13.80;99.90;;;;;;5074075;28;20200;-56
2021/09/14 03:55:48;;;;;;;7.93;7.13;;;13.80;99.90;;;;;;5074209;28;20217;-56
2021/09/14 03:58:16;;;;;;;8.00;7.23;;;13.80;99.90;;;;;;5074136;28;20207;-58
2021/09/14 04:00:50;;;;;;;9.80;7.57;;;13.80;99.90;;;;;;5074161;28;20201;-54
2021/09/14 04:03:23;;;;;;;9.70;7.43;;;13.80;99.90;;;;;;5073914;28;20267;-56
2021/09/14 04:06:07;;;;;;;8.60;7.07;;;13.80;99.90;;;;;;5073337;28;20676;-57
2021/09/14 04:08:51;;;;;;;8.00;7.20;;;13.70;99.90;;;;;;5073927;28;20280;-56
2021/09/14 04:11:21;;;;;;;8.80;7.78;;;13.70;99.90;;;;;;5073982;28;20227;-56
2021/09/14 04:13:49;;;;;;;10.13;7.43;;;13.70;99.90;;;;;;5073842;28;20233;-56
2021/09/14 04:16:17;;;;;;;8.10;7.30;;;13.70;99.90;;;;;;5073537;28;20315;-57
2021/09/14 04:18:45;;;;;;;8.82;7.93;;;13.70;99.90;;;;;;5073755;28;20205;-56
2021/09/14 04:21:13;;;;;;;8.85;8.05;;;13.70;99.90;;;;;;5073706;28;20197;-55
2021/09/14 04:23:43;;;;;;;9.03;8.13;;;13.70;99.90;;;;;;5073578;28;20295;-57
2021/09/14 04:26:10;;;;;;;9.07;7.97;;;13.70;99.90;;;;;;5073575;28;20195;-56
2021/09/14 04:28:38;;;;;;;9.13;8.17;;;13.60;99.90;;;;;;5073134;28;20204;-56
2021/09/14 04:31:06;;;;;;;8.65;7.75;;;13.60;99.90;;;;;;5073525;28;20208;-57
2021/09/14 04:33:34;;;;;;;10.38;7.70;;;13.70;99.90;;;;;;5073289;28;20571;-56
2021/09/14 04:36:02;;;;;;;8.87;8.00;;;13.70;99.90;;;;;;5073029;28;20248;-58
2021/09/14 04:38:30;;;;;;;9.20;8.30;;;13.70;99.90;;;;;;5073061;28;20694;-57
2021/09/14 04:40:59;;;;;;;12.13;9.13;;;13.70;99.90;;;;;;5073139;28;20688;-57
2021/09/14 04:43:27;;;;;;;8.88;8.07;;;13.70;99.90;;;;;;5072943;28;20236;-57
2021/09/14 04:45:55;;;;;;;9.70;8.70;;;13.80;99.90;;;;;;5072928;28;20207;-56
2021/09/14 04:48:23;;;;;;;11.77;10.03;;;13.80;99.90;;;;;;5072862;28;20232;-56
2021/09/14 04:50:52;;;;;;;11.13;9.60;;;13.70;99.90;;;;;;5073113;28;20295;-57
2021/09/14 04:53:20;;;;;;;11.73;10.00;;;13.80;99.90;;;;;;5072724;28;20716;-59
2021/09/14 04:55:48;;;;;;;10.37;9.27;;;13.80;99.90;;;;;;5073423;28;20200;-58
2021/09/14 04:58:17;;;;;;;10.52;9.48;;;13.80;99.90;;;;;;5072443;28;20291;-57
2021/09/14 05:00:45;;;;;;;9.97;8.97;;;13.80;99.90;;;;;;5072980;28;20631;-55
2021/09/14 05:03:13;;;;;;;10.83;8.40;;;13.80;99.90;;;;;;5072969;28;20224;-57
2021/09/14 05:05:41;;;;;;;10.60;8.70;;;13.80;99.90;;;;;;5072319;28;20759;-57
2021/09/14 05:08:09;;;;;;;12.15;8.20;;;13.80;99.90;;;;;;5072807;28;20187;-57
2021/09/14 05:10:38;;;;;;;9.50;8.55;;;13.80;99.90;;;;;;5072544;28;20603;-56
2021/09/14 05:13:06;;;;;;;9.77;8.80;;;13.80;99.90;;;;;;5072155;28;20659;-57
2021/09/14 05:15:35;;;;;;;12.02;9.10;;;13.80;99.90;;;;;;5072599;28;20295;-57
2021/09/14 05:18:09;;;;;;;13.45;9.60;;;13.80;99.90;;;;;;5071758;28;20307;-56
2021/09/14 05:20:36;;;;;;;10.52;9.25;;;13.90;99.90;;;;;;5072959;28;20196;-56
2021/09/14 05:23:12;;;;;;;10.13;9.13;;;13.90;99.90;;;;;;5072710;28;20201;-56
2021/09/14 05:25:41;;;;;;;10.23;8.80;;;13.90;99.90;;;;;;5072594;28;20191;-57
2021/09/14 05:28:12;;;;;;;10.43;9.30;;;13.90;99.90;;;;;;5072342;28;20214;-58
2021/09/14 05:30:45;;;;;;;10.90;9.05;;;14.00;99.90;;;;;;5072514;28;20224;-57
2021/09/14 05:33:14;;;;;;;9.60;8.53;;;14.00;99.90;;;;;;5072802;28;20225;-57
2021/09/14 05:35:45;;;;;;;10.35;9.35;;;14.00;99.90;;;;;;5072784;28;20208;-56
2021/09/14 05:38:13;;;;;;;10.45;8.77;;;14.10;99.90;;;;;;5072312;28;20255;-57
2021/09/14 05:40:42;;;;;;;11.23;8.93;;;14.30;99.90;;;;;;5072599;28;20612;-56
2021/09/14 05:43:10;;;;;;;10.90;9.75;;;14.40;99.90;;;;;;5072299;28;20216;-58
2021/09/14 05:45:38;;;;;;;10.65;9.18;;;14.60;99.90;;;;;;5072804;28;20223;-56
2021/09/14 05:48:08;;;;;;;14.63;9.60;;;14.80;99.90;;;;;;5072745;28;20192;-57
2021/09/14 05:50:36;;;;;;;10.27;8.52;;;14.90;99.90;;;;;;5072387;28;20671;-57
2021/09/14 05:53:04;;;;;;;10.57;9.48;;;15.00;99.90;;;;;;5072251;28;20291;-57
2021/09/14 05:55:32;;;;;;;11.25;9.45;;;15.10;99.90;;;;;;5072137;28;20539;-57
2021/09/14 05:58:00;;;;;;;9.95;8.95;;;15.10;99.90;;;;;;5071886;28;20744;-55
2021/09/14 06:00:28;;;;;;;10.85;9.63;;;15.10;99.90;;;;;;5072243;28;20235;-54
2021/09/14 06:02:56;;;;;;;11.60;9.98;;;15.20;99.90;;;;;;5072222;28;20688;-57
2021/09/14 06:05:25;;;;;;;9.90;8.70;;;15.20;99.90;;;;;;5072369;28;20228;-57
2021/09/14 06:07:53;;;;;;;11.35;10.23;;;15.20;99.90;;;;;;5071836;28;20224;-58
2021/09/14 06:10:21;;;;;;;11.68;10.18;;;15.30;99.90;;;;;;5072134;28;20215;-55
2021/09/14 06:12:49;;;;;;;11.63;10.52;;;15.30;99.90;;;;;;5072228;28;20205;-57
2021/09/14 06:15:17;;;;;;;13.40;11.63;;;15.40;99.90;;;;;;5071909;28;20201;-57
2021/09/14 06:17:45;;;;;;;14.02;12.13;;;15.40;99.90;;;;;;5071938;28;20612;-57
2021/09/14 06:20:13;;;;;;;12.77;11.57;;;15.50;99.90;;;;;;5072270;28;20201;-58
2021/09/14 06:22:42;;;;;;;16.27;13.32;;;15.50;99.90;;;;;;5072019;28;20685;-56
2021/09/14 06:25:11;;;;;;;14.43;13.02;;;15.60;99.90;;;;;;5072081;28;20211;-58
2021/09/14 06:27:40;;;;;;;16.52;12.85;;;15.70;99.90;;;;;;5072230;28;20192;-56
2021/09/14 06:30:09;;;;;;;13.70;12.32;;;15.70;99.90;;;;;;5074851;28;20201;-57
2021/09/14 06:32:37;;;;;;;14.48;11.95;;;15.70;99.90;;;;;;5075523;28;20200;-58
2021/09/14 06:35:06;;;;;;;13.32;11.93;;;15.80;99.90;;;;;;5075653;28;20230;-57
2021/09/14 06:37:34;;;;;;;13.10;11.70;;;15.90;99.90;;;;;;5075330;28;20748;-56
2021/09/14 06:40:04;;;;;;;18.25;14.70;;;15.90;99.90;;;;;;5075186;28;20767;-56
2021/09/14 06:42:32;;;;;;;14.70;13.20;;;16.00;99.90;;;;;;5075231;28;20556;-57
2021/09/14 06:45:01;;;;;;;16.73;14.05;;;16.10;99.90;;;;;;5075451;28;20200;-57
2021/09/14 06:47:29;;;;;;;14.77;13.27;;;16.20;99.90;;;;;;5075458;28;20266;-57
2021/09/14 06:49:57;;;;;;;16.15;14.05;;;16.20;99.90;;;;;;5075355;28;20292;-57
2021/09/14 06:52:40;;;;;;;16.55;14.60;;;16.30;99.90;;;;;;5075550;28;20211;-57
2021/09/14 06:55:10;;;;;;;16.73;14.90;;;16.40;99.90;;;;;;5075275;28;20322;-58
2021/09/14 06:57:38;;;;;;;18.08;14.20;;;16.50;99.90;;;;;;5074964;28;20558;-57
2021/09/14 07:00:07;;;;;;;17.10;15.32;;;16.50;99.90;;;;;;5075369;28;20307;-56
2021/09/14 07:02:35;;;;;;;16.27;14.57;;;16.60;99.90;;;;;;5075000;28;20210;-56
2021/09/14 07:05:05;;;;;;;17.02;14.27;;;16.70;99.90;;;;;;5075226;28;20207;-58
2021/09/14 07:07:34;;;;;;;16.58;14.68;;;16.80;99.90;;;;;;5074848;28;20232;-56
2021/09/14 07:10:03;;;;;;;15.93;14.23;;;16.80;99.90;;;;;;5075050;28;20209;-56
2021/09/14 07:12:33;;;;;;;16.83;14.80;;;16.90;99.90;;;;;;5074971;28;20586;-57
2021/09/14 07:15:03;;;;;;;16.40;14.80;;;17.00;99.90;;;;;;5075116;28;20209;-59
2021/09/14 07:17:30;;;;;;;16.80;14.07;;;17.00;99.90;;;;;;5074707;28;20700;-58
2021/09/14 07:19:58;;;;;;;15.32;13.82;;;17.10;99.90;;;;;;5075096;28;20409;-55
2021/09/14 07:22:26;;;;;;;16.40;13.05;;;17.20;99.90;;;;;;5074933;28;20197;-58
2021/09/14 07:24:54;;;;;;;14.00;12.57;;;17.30;99.90;;;;;;5074670;28;20205;-57
2021/09/14 07:27:21;;;;;;;14.10;12.70;;;17.30;99.90;;;;;;5085015;28;20203;-57
2021/09/14 07:29:51;;;;;;;13.43;12.15;;;17.40;99.90;;;;;;5094618;28;20611;-58
2021/09/14 07:32:19;;;;;;;16.45;13.25;;;17.50;99.90;;;;;;5094743;28;20319;-58
2021/09/14 07:34:47;;;;;;;16.02;14.30;;;17.60;99.90;;;;;;5092116;28;20207;-59
2021/09/14 07:37:15;;;;;;;15.30;13.70;;;17.70;99.90;;;;;;5094413;28;20206;-58
2021/09/14 07:39:42;;;;;;;15.95;14.32;;;17.70;99.90;;;;;;5094198;28;20240;-59
2021/09/14 07:42:10;;;;;;;15.02;13.55;;;17.80;99.90;;;;;;5093328;28;20291;-59
2021/09/14 07:44:38;;;;;;;12.10;11.00;;;17.90;99.90;;;;;;5094119;28;20246;-57
2021/09/14 07:47:07;;;;;;;15.68;13.32;;;17.90;99.90;;;;;;5094223;28;20543;-58
2021/09/14 07:49:36;;;;;;;15.90;14.30;;;18.00;99.90;;;;;;5094581;28;20287;-57
2021/09/14 07:52:04;;;;;;;17.67;15.98;;;18.10;99.90;;;;;;5094510;28;20287;-58
2021/09/14 07:54:32;;;;;;;16.92;15.13;;;18.10;99.90;;;;;;5093996;28;20674;-58
2021/09/14 07:57:00;;;;;;;17.90;14.95;;;18.20;99.90;;;;;;5094380;28;20200;-58
2021/09/14 07:59:31;;;;;;;16.55;15.05;;;18.20;99.90;;;;;;5094274;28;20200;-58
2021/09/14 08:01:59;;;;;;;15.73;14.13;;;18.30;99.90;;;;;;5094137;28;20723;-58
2021/09/14 08:04:28;;;;;;;16.70;14.90;;;18.40;99.90;;;;;;5094385;28;20200;-58
2021/09/14 08:06:56;;;;;;;20.35;16.05;;;18.40;99.90;;;;;;5094032;28;20224;-58
2021/09/14 08:09:28;;;;;;;17.88;15.50;;;18.50;99.90;;;;;;5093829;28;20199;-58
2021/09/14 08:11:56;;;;;;;15.52;13.95;;;18.60;99.90;;;;;;5094302;28;20256;-58
2021/09/14 08:14:24;;;;;;;16.10;14.48;;;18.70;99.90;;;;;;5094037;28;20196;-58
2021/09/14 08:16:52;;;;;;;14.98;13.68;;;18.80;99.90;;;;;;5093824;28;20816;-57
2021/09/14 08:19:20;;;;;;;17.58;15.82;;;18.90;99.90;;;;;;5094030;28;20220;-58
2021/09/14 08:21:49;;;;;;;17.75;15.85;;;19.00;99.90;;;;;;5093902;28;20216;-59
2021/09/14 08:24:19;;;;;;;16.98;15.25;;;19.10;99.90;;;;;;5093632;28;20200;-58
2021/09/14 08:26:47;;;;;;;16.38;14.80;;;19.10;99.90;;;;;;5093316;28;20196;-57
2021/09/14 08:29:15;;;;;;;17.25;15.55;;;19.20;99.90;;;;;;5093320;28;20551;-58
2021/09/14 08:31:43;;;;;;;15.85;14.20;;;19.20;99.90;;;;;;5093476;28;20291;-58
2021/09/14 08:34:11;;;;;;;17.92;16.27;;;19.30;99.90;;;;;;5093737;28;20200;-58
2021/09/14 08:36:39;;;;;;;15.75;14.15;;;19.30;99.90;;;;;;5093749;28;20299;-57
2021/09/14 08:39:08;;;;;;;18.98;16.00;;;19.40;99.90;;;;;;5093373;28;20230;-57
2021/09/14 08:41:37;;;;;;;16.92;15.23;;;19.50;99.90;;;;;;5093710;28;20199;-58
2021/09/14 08:44:05;;;;;;;19.15;16.02;;;19.60;99.90;;;;;;5093389;28;20206;-58
2021/09/14 08:46:35;;;;;;;16.80;15.02;;;19.60;99.90;;;;;;5093336;28;20290;-58
2021/09/14 08:49:03;;;;;;;18.55;16.67;;;19.70;99.90;;;;;;5093769;28;20199;-58
2021/09/14 08:51:31;;;;;;;14.23;12.93;;;19.80;99.90;;;;;;5093007;28;20674;-59
2021/09/14 08:53:59;;;;;;;16.95;15.35;;;19.90;99.90;;;;;;5093125;28;20228;-58
2021/09/14 08:56:28;;;;;;;14.90;13.52;;;20.00;99.90;;;;;;5093028;28;20636;-58
2021/09/14 08:58:57;;;;;;;15.68;14.13;;;20.10;99.90;;;;;;5092728;28;20593;-59
2021/09/14 09:01:25;;;;;;;14.98;12.90;;;20.10;99.90;;;;;;5093278;28;20223;-57
2021/09/14 09:04:00;;;;;;;14.40;12.02;;;20.20;99.90;;;;;;5093197;28;20625;-58
2021/09/14 09:06:32;;;;;;;13.13;11.75;;;20.20;99.90;;;;;;5092466;28;20230;-58
2021/09/14 09:09:13;;;;;;;13.55;12.15;;;20.30;99.90;;;;;;5092633;28;20297;-58
2021/09/14 09:11:54;;;;;;;13.55;12.15;;;20.40;99.90;;;;;;5092811;28;20188;-58
2021/09/14 09:14:39;;;;;;;11.05;9.95;;;20.50;99.90;;;;;;5093031;28;20198;-59
2021/09/14 09:17:10;;;;;;;11.35;10.25;;;20.60;99.90;;;;;;5092347;28;20291;-58
2021/09/14 09:19:38;;;;;;;11.15;10.20;;;20.70;99.90;;;;;;5092744;28;20303;-57
2021/09/14 09:22:10;;;;;;;10.60;9.65;;;20.80;99.90;;;;;;5093501;28;20200;-58
2021/09/14 09:24:46;;;;;;;11.07;10.07;;;20.90;99.90;;;;;;5093004;28;20536;-57
2021/09/14 09:27:17;;;;;;;10.40;9.40;;;20.90;99.90;;;;;;5092842;28;20195;-59
2021/09/14 09:29:45;;;;;;;10.65;9.65;;;21.00;99.90;;;;;;5092789;28;20188;-59
2021/09/14 09:32:13;;;;;;;9.68;8.73;;;21.10;99.90;;;;;;5092884;28;20291;-58
2021/09/14 09:34:41;;;;;;;11.25;9.93;;;21.10;99.90;;;;;;5092994;28;20240;-57
2021/09/14 09:37:09;;;;;;;10.10;9.10;;;21.10;99.90;;;;;;5092578;28;20287;-58
2021/09/14 09:39:42;;;;;;;10.82;9.82;;;21.20;99.90;;;;;;5092566;28;20310;-59
2021/09/14 09:42:10;;;;;;;9.65;8.82;;;21.30;99.90;;;;;;5092779;28;20271;-57
2021/09/14 09:44:40;;;;;;;10.52;9.60;;;21.40;99.90;;;;;;5092480;28;20235;-58
2021/09/14 09:47:07;;;;;;;10.57;9.57;;;21.50;99.90;;;;;;5092953;28;20602;-58
2021/09/14 09:49:35;;;;;;;9.25;8.40;;;21.50;99.90;;;;;;5092486;28;20290;-58
2021/09/14 09:52:03;;;;;;;10.65;9.60;;;21.60;99.90;;;;;;5092404;28;20196;-58
2021/09/14 09:54:32;;;;;;;10.07;9.07;;;21.70;99.90;;;;;;5092258;28;20207;-59
2021/09/14 09:57:00;;;;;;;10.13;9.13;;;21.80;99.90;;;;;;5092496;28;20210;-58
2021/09/14 09:59:28;;;;;;;9.65;8.75;;;21.90;99.90;;;;;;5092081;28;20323;-59
2021/09/14 10:02:19;;;;;;;9.52;8.75;;;21.90;99.90;;;;;;5092552;28;20355;-59
2021/09/14 10:04:52;;;;;;;9.30;8.30;;;21.90;99.90;;;;;;5094726;28;20184;-59
2021/09/14 10:07:20;;;;;;;10.13;9.30;;;22.00;99.90;;;;;;5096355;28;20234;-58
2021/09/14 10:09:52;;;;;;;9.07;8.35;;;22.00;99.90;;;;;;5096558;28;20203;-59
2021/09/14 10:12:25;;;;;;;11.52;8.98;;;22.10;99.90;;;;;;5096300;28;20746;-58
2021/09/14 10:14:57;;;;;;;8.55;7.85;;;22.20;99.90;;;;;;5096515;28;20694;-59
2021/09/14 10:17:27;;;;;;;9.40;8.02;;;22.20;99.90;;;;;;5096225;28;20199;-58
2021/09/14 10:19:57;;;;;;;8.70;7.95;;;22.20;99.90;;;;;;5096226;28;20204;-60
2021/09/14 10:22:26;;;;;;;8.85;8.13;;;22.30;99.90;;;;;;5096287;28;20203;-59
2021/09/14 10:24:58;;;;;;;9.85;7.18;;;22.30;99.90;;;;;;5096431;28;20196;-59
2021/09/14 10:27:37;;;;;;;11.35;9.82;;;22.40;99.90;;;;;;5095991;28;20279;-59
2021/09/14 10:30:07;;;;;;;10.20;9.07;;;22.50;99.90;;;;;;5096222;28;20186;-58
2021/09/14 10:32:42;;;;;;;11.18;9.48;;;22.60;99.90;;;;;;5095922;28;20188;-58
2021/09/14 10:35:13;;;;;;;7.70;7.00;;;22.80;99.90;;;;;;5095829;28;20532;-58
2021/09/14 10:37:40;;;;;;;7.38;6.78;;;23.00;99.90;;;;;;5095489;28;20514;-59
2021/09/14 10:40:11;;;;;;;7.63;7.00;;;23.00;99.90;;;;;;5095775;28;20230;-59
2021/09/14 10:42:42;;;;;;;7.60;6.85;;;23.00;99.90;;;;;;5095780;28;20180;-59
2021/09/14 10:45:12;;;;;;;7.88;7.18;;;23.00;99.90;;;;;;5095968;28;20184;-57
2021/09/14 10:47:42;;;;;;;7.93;7.20;;;23.00;99.90;;;;;;5095676;28;20668;-58
2021/09/14 10:50:15;;;;;;;8.07;7.28;;;23.00;99.90;;;;;;5095748;28;20191;-58
2021/09/14 10:52:43;;;;;;;8.15;7.35;;;22.90;99.90;;;;;;5095728;28;20279;-57
2021/09/14 10:55:14;;;;;;;8.05;7.43;;;23.00;99.90;;;;;;5095646;28;20200;-59
2021/09/14 10:57:44;;;;;;;8.63;7.93;;;22.90;99.90;;;;;;5095403;28;20596;-59
2021/09/14 11:00:15;;;;;;;7.85;7.25;;;22.80;99.90;;;;;;5095565;28;20210;-59
2021/09/14 11:02:55;;;;;;;8.13;7.05;;;22.80;99.90;;;;;;5095657;28;20275;-58
2021/09/14 11:05:27;;;;;;;8.93;8.07;;;22.80;99.90;;;;;;5095987;28;20180;-59
2021/09/14 11:07:58;;;;;;;8.27;7.47;;;22.90;99.90;;;;;;5095142;28;20285;-59
2021/09/14 11:10:32;;;;;;;7.65;6.95;;;22.90;99.90;;;;;;5095412;28;20223;-58
2021/09/14 11:13:00;;;;;;;8.43;7.82;;;22.90;99.90;;;;;;5095348;28;20284;-58
2021/09/14 11:15:28;;;;;;;7.90;7.20;;;22.80;99.90;;;;;;5093915;28;20290;-58
2021/09/14 11:17:57;;;;;;;7.88;7.15;;;22.90;99.90;;;;;;5094684;28;20203;-58
2021/09/14 11:20:26;;;;;;;9.90;7.38;;;23.00;99.90;;;;;;5095111;28;20216;-59
2021/09/14 11:22:55;;;;;;;6.85;6.25;;;23.00;99.90;;;;;;5094797;28;20747;-58
2021/09/14 11:25:25;;;;;;;12.23;6.85;;;23.10;99.90;;;;;;5094867;28;20291;-60
2021/09/14 11:27:56;;;;;;;7.40;6.60;;;23.20;99.90;;;;;;5094594;28;20571;-58
2021/09/14 11:30:25;;;;;;;7.63;6.93;;;23.20;99.90;;;;;;5095091;28;20291;-58
2021/09/14 11:32:54;;;;;;;8.43;7.35;;;23.30;99.90;;;;;;5094715;28;20665;-59
2021/09/14 11:35:23;;;;;;;6.10;5.60;;;23.20;99.90;;;;;;5094974;28;20206;-59
2021/09/14 11:37:59;;;;;;;6.63;6.03;;;23.30;99.90;;;;;;5094642;28;20660;-59
2021/09/14 11:40:28;;;;;;;10.68;7.45;;;23.20;99.90;;;;;;5094494;28;20788;-58
2021/09/14 11:42:56;;;;;;;7.70;6.78;;;23.30;99.90;;;;;;5095269;28;20316;-58
2021/09/14 11:45:25;;;;;;;8.25;6.70;;;23.30;99.90;;;;;;5095097;28;20196;-60
2021/09/14 11:47:54;;;;;;;7.15;6.55;;;23.30;99.90;;;;;;5095089;28;20204;-58
2021/09/14 11:50:38;;;;;;;6.40;5.80;;;23.30;99.90;;;;;;5095498;28;20196;-58
2021/09/14 11:53:10;;;;;;;7.13;5.78;;;23.30;99.90;;;;;;5096327;28;20222;-58
2021/09/14 11:55:41;;;;;;;6.72;6.15;;;23.40;99.90;;;;;;5097090;28;20188;-58
2021/09/14 11:58:09;;;;;;;6.70;6.18;;;23.50;99.90;;;;;;5096159;28;20711;-58
2021/09/14 12:00:38;;;;;;;6.28;5.78;;;23.60;99.90;;;;;;5095883;28;20215;-58
2021/09/14 12:03:06;;;;;;;7.57;6.75;;;23.60;99.90;;;;;;5095030;28;20647;-57
2021/09/14 12:05:34;;;;;;;8.18;7.20;;;23.60;99.90;;;;;;5094385;28;20261;-59
2021/09/14 12:08:09;;;;;;;7.15;6.55;;;23.70;99.90;;;;;;5093853;28;20227;-59
2021/09/14 12:10:45;;;;;;;8.55;6.85;;;23.60;99.90;;;;;;5094486;28;20180;-58
2021/09/14 12:13:18;;;;;;;5.82;5.22;;;23.70;99.90;;;;;;5094440;28;20195;-59
2021/09/14 12:15:48;;;;;;;6.40;5.80;;;23.70;99.90;;;;;;5094131;28;20279;-58
2021/09/14 12:18:17;;;;;;;6.07;5.50;;;23.60;99.90;;;;;;5094260;28;20200;-59
2021/09/14 12:20:45;;;;;;;5.97;5.47;;;23.80;99.90;;;;;;5094118;28;20311;-58
2021/09/14 12:23:15;;;;;;;7.50;6.80;;;23.80;99.90;;;;;;5093974;28;20224;-58
2021/09/14 12:25:44;;;;;;;6.70;6.13;;;23.80;99.90;;;;;;5093780;28;20728;-58
2021/09/14 12:28:11;;;;;;;6.18;5.68;;;23.80;99.90;;;;;;5093592;28;20207;-58
2021/09/14 12:30:39;;;;;;;6.90;6.28;;;23.80;99.90;;;;;;5093913;28;20199;-58
2021/09/14 12:33:07;;;;;;;6.20;5.70;;;23.80;99.90;;;;;;5093689;28;20200;-59
2021/09/14 12:35:36;;;;;;;6.80;5.97;;;23.80;99.90;;;;;;5093800;28;20611;-59
2021/09/14 12:38:08;;;;;;;7.28;6.55;;;23.80;99.90;;;;;;5093336;28;20191;-58
2021/09/14 12:40:38;;;;;;;6.68;5.88;;;23.80;99.90;;;;;;5093517;28;20273;-59
2021/09/14 12:43:05;;;;;;;6.63;5.75;;;23.90;99.90;;;;;;5093533;28;20286;-59
2021/09/14 12:45:33;;;;;;;6.50;6.00;;;23.90;99.90;;;;;;5093511;28;20203;-59
2021/09/14 12:48:02;;;;;;;6.45;5.63;;;24.00;99.90;;;;;;5093517;28;20344;-59
2021/09/14 12:50:29;;;;;;;6.43;5.88;;;24.10;99.90;;;;;;5093542;28;20291;-58
2021/09/14 12:52:57;;;;;;;6.30;5.70;;;24.10;99.90;;;;;;5093140;28;20295;-58
2021/09/14 12:55:25;;;;;;;5.65;5.15;;;24.10;99.90;;;;;;5092916;28;20206;-58
2021/09/14 12:57:56;;;;;;;5.60;5.10;;;24.10;99.90;;;;;;5093236;28;20204;-59
2021/09/14 13:00:24;;;;;;;6.95;5.40;;;24.20;99.90;;;;;;5093095;28;20451;-58
2021/09/14 13:02:52;;;;;;;6.10;4.93;;;24.20;99.90;;;;;;5093456;28;20286;-59
2021/09/14 13:05:20;;;;;;;5.97;5.47;;;24.20;99.90;;;;;;5093320;28;20303;-58
2021/09/14 13:07:48;;;;;;;5.68;5.13;;;24.20;99.90;;;;;;5092888;28;20262;-58
2021/09/14 13:10:29;;;;;;;6.88;5.70;;;24.20;99.90;;;;;;5092887;28;20195;-58
2021/09/14 13:18:29;;;;;;;6.60;5.88;;;24.20;99.90;;;;;;5092844;28;20191;-59
2021/09/14 13:20:57;;;;;;;6.55;5.03;;;24.20;99.90;;;;;;5092835;28;20220;-58
2021/09/14 13:23:25;;;;;;;5.80;5.20;;;24.30;99.90;;;;;;5092420;28;20775;-58
2021/09/14 13:25:53;;;;;;;5.85;5.35;;;24.30;99.90;;;;;;5092650;28;20294;-57
2021/09/14 13:28:22;;;;;;;6.47;5.05;;;24.20;99.90;;;;;;5092756;28;20200;-59
2021/09/14 13:30:50;;;;;;;6.13;5.53;;;24.20;99.90;;;;;;5092644;28;20199;-59
2021/09/14 13:33:18;;;;;;;5.40;4.90;;;24.20;99.90;;;;;;5092839;28;20204;-59
2021/09/14 13:35:46;;;;;;;6.55;5.80;;;24.20;99.90;;;;;;5092537;28;20210;-59
2021/09/14 13:38:14;;;;;;;6.40;5.80;;;24.20;99.90;;;;;;5092139;28;20196;-59
2021/09/14 13:40:45;;;;;;;7.97;5.75;;;24.20;99.90;;;;;;5092467;28;20584;-59
2021/09/14 13:43:13;;;;;;;6.05;5.45;;;24.10;99.90;;;;;;5092644;28;20208;-59
2021/09/14 13:48:29;;;;;;;7.50;5.93;;;24.10;99.90;;;;;;5092728;28;20196;-58